createdAt,value
2018-02-10T00:01:59.759Z,1.80
2018-02-10T00:04:27.226Z,1.80
2018-02-10T00:06:54.681Z,1.80
2018-02-10T00:09:22.908Z,1.90
2018-02-10T00:11:50.366Z,1.80
2018-02-10T00:14:17.820Z,1.90
2018-02-10T00:16:45.284Z,1.90
2018-02-10T00:19:12.748Z,1.90
2018-02-10T00:21:40.212Z,1.90
2018-02-10T00:24:07.682Z,1.90
2018-02-10T00:26:35.918Z,2.00
2018-02-10T00:29:04.141Z,1.90
2018-02-10T00:31:31.620Z,1.90
2018-02-10T00:33:59.088Z,1.90
2018-02-10T00:36:26.561Z,1.80
2018-02-10T00:38:54.025Z,1.80
2018-02-10T00:41:21.480Z,1.90
2018-02-10T00:43:48.940Z,1.90
2018-02-10T00:46:16.422Z,1.90
2018-02-10T00:48:43.877Z,1.90
2018-02-10T00:51:11.341Z,1.90
2018-02-10T00:53:38.802Z,1.90
2018-02-10T00:56:06.260Z,1.90
2018-02-10T00:58:33.713Z,1.90
2018-02-10T01:01:01.173Z,1.90
2018-02-10T01:03:28.627Z,1.90
2018-02-10T01:05:56.080Z,1.90
2018-02-10T01:08:23.552Z,1.90
2018-02-10T01:10:51.013Z,1.90
2018-02-10T01:13:18.496Z,1.90
2018-02-10T01:15:45.951Z,2.00
2018-02-10T01:18:13.419Z,2.00
2018-02-10T01:20:40.880Z,2.00
2018-02-10T01:23:08.357Z,2.00
2018-02-10T01:25:36.585Z,2.00
2018-02-10T01:28:04.056Z,2.00
2018-02-10T01:30:31.512Z,2.20
2018-02-10T01:32:58.968Z,2.20
2018-02-10T01:35:26.428Z,2.30
2018-02-10T01:37:53.892Z,2.20
2018-02-10T01:40:21.344Z,2.20
2018-02-10T01:42:48.812Z,2.20
2018-02-10T01:45:16.359Z,2.10
2018-02-10T01:47:43.842Z,2.10
2018-02-10T01:50:21.113Z,2.10
2018-02-10T01:52:48.575Z,2.30
2018-02-10T01:55:16.021Z,2.00
2018-02-10T01:57:44.262Z,1.90
2018-02-10T02:00:11.719Z,1.90
2018-02-10T02:02:39.195Z,2.00
2018-02-10T02:05:06.688Z,1.90
2018-02-10T02:07:34.129Z,2.00
2018-02-10T02:10:01.587Z,2.00
2018-02-10T02:12:29.057Z,1.90
2018-02-10T02:14:56.520Z,1.90
2018-02-10T02:17:23.973Z,1.90
2018-02-10T02:19:51.436Z,1.90
2018-02-10T02:22:18.909Z,1.90
2018-02-10T02:24:46.368Z,1.80
2018-02-10T02:27:13.824Z,1.90
2018-02-10T02:29:41.284Z,2.00
2018-02-10T02:32:08.749Z,2.00
2018-02-10T02:34:36.213Z,1.90
2018-02-10T02:37:03.675Z,1.90
2018-02-10T02:39:31.125Z,1.90
2018-02-10T02:42:01.343Z,2.00
2018-02-10T02:44:28.824Z,2.00
2018-02-10T02:46:56.273Z,2.00
2018-02-10T02:49:23.744Z,1.90
2018-02-10T02:51:51.207Z,2.00
2018-02-10T02:54:18.677Z,2.00
2018-02-10T02:56:46.149Z,2.20
2018-02-10T02:59:14.386Z,2.10
2018-02-10T03:01:41.832Z,2.00
2018-02-10T03:04:09.316Z,2.00
2018-02-10T03:06:36.760Z,1.90
2018-02-10T03:09:04.232Z,2.00
2018-02-10T03:11:31.692Z,2.00
2018-02-10T03:13:59.160Z,1.90
2018-02-10T03:16:26.607Z,2.00
2018-02-10T03:18:54.073Z,1.90
2018-02-10T03:21:21.532Z,2.00
2018-02-10T03:23:48.991Z,2.00
2018-02-10T03:26:16.453Z,1.90
2018-02-10T03:28:43.911Z,1.90
2018-02-10T03:31:11.388Z,1.90
2018-02-10T03:33:38.854Z,2.00
2018-02-10T03:36:06.315Z,2.00
2018-02-10T03:38:33.760Z,1.90
2018-02-10T03:41:01.985Z,1.80
2018-02-10T03:43:30.215Z,1.80
2018-02-10T03:45:57.696Z,1.70
2018-02-10T03:48:25.166Z,1.70
2018-02-10T03:50:52.616Z,1.70
2018-02-10T03:53:20.063Z,1.70
2018-02-10T03:55:48.303Z,1.70
2018-02-10T03:58:16.511Z,1.80
2018-02-10T04:00:43.988Z,1.80
2018-02-10T04:03:12.208Z,1.90
2018-02-10T04:05:40.452Z,1.90
2018-02-10T04:08:07.915Z,1.90
2018-02-10T04:10:35.375Z,1.90
2018-02-10T04:13:02.841Z,2.00
2018-02-10T04:15:30.301Z,2.00
2018-02-10T04:17:57.763Z,1.90
2018-02-10T04:20:25.225Z,1.90
2018-02-10T04:22:52.664Z,1.90
2018-02-10T04:25:20.124Z,1.80
2018-02-10T04:27:47.584Z,1.80
2018-02-10T04:30:15.064Z,1.70
2018-02-10T04:32:42.532Z,1.80
2018-02-10T04:35:10.004Z,1.80
2018-02-10T04:37:37.520Z,1.80
2018-02-10T04:40:05.727Z,1.70
2018-02-10T04:42:33.212Z,1.70
2018-02-10T04:45:00.675Z,1.70
2018-02-10T04:47:29.350Z,1.80
2018-02-10T04:49:56.791Z,1.80
2018-02-10T04:52:24.270Z,1.70
2018-02-10T04:54:51.719Z,1.80
2018-02-10T04:57:19.215Z,1.80
2018-02-10T04:59:46.644Z,1.80
2018-02-10T05:02:14.109Z,1.90
2018-02-10T05:04:41.571Z,1.90
2018-02-10T05:07:09.033Z,1.80
2018-02-10T05:09:36.494Z,1.80
2018-02-10T05:12:03.956Z,1.90
2018-02-10T05:14:31.405Z,1.90
2018-02-10T05:16:58.879Z,1.90
2018-02-10T05:19:26.345Z,1.90
2018-02-10T05:21:53.822Z,1.80
2018-02-10T05:24:21.279Z,1.80
2018-02-10T05:26:48.741Z,1.80
2018-02-10T05:29:16.199Z,1.80
2018-02-10T05:31:43.667Z,1.80
2018-02-10T05:34:11.120Z,1.80
2018-02-10T05:36:38.606Z,1.80
2018-02-10T05:39:06.063Z,1.80
2018-02-10T05:41:33.532Z,1.90
2018-02-10T05:44:01.015Z,1.90
2018-02-10T05:46:28.472Z,1.90
2018-02-10T05:48:55.949Z,1.80
2018-02-10T05:51:23.412Z,1.80
2018-02-10T05:53:50.863Z,1.80
2018-02-10T05:56:18.311Z,1.80
2018-02-10T05:58:45.785Z,1.80
2018-02-10T06:01:13.232Z,1.80
2018-02-10T06:03:40.710Z,1.70
2018-02-10T06:06:08.164Z,1.70
2018-02-10T06:08:35.616Z,1.80
2018-02-10T06:11:03.102Z,1.80
2018-02-10T06:13:30.566Z,1.70
2018-02-10T06:15:58.049Z,1.70
2018-02-10T06:18:26.265Z,1.70
2018-02-10T06:20:53.724Z,1.70
2018-02-10T06:23:21.207Z,1.80
2018-02-10T06:25:48.656Z,1.80
2018-02-10T06:28:16.120Z,1.70
2018-02-10T06:30:43.572Z,1.80
2018-02-10T06:33:11.033Z,1.90
2018-02-10T06:35:38.499Z,1.80
2018-02-10T06:38:05.958Z,1.90
2018-02-10T06:40:33.421Z,2.10
2018-02-10T06:43:00.889Z,2.20
2018-02-10T06:45:28.392Z,2.10
2018-02-10T06:47:55.871Z,2.00
2018-02-10T06:50:24.100Z,1.80
2018-02-10T06:52:51.567Z,1.80
2018-02-10T06:55:19.017Z,1.80
2018-02-10T06:57:46.500Z,1.80
2018-02-10T07:00:13.947Z,1.80
2018-02-10T07:02:41.499Z,1.80
2018-02-10T07:05:09.711Z,1.80
2018-02-10T07:07:37.180Z,1.80
2018-02-10T07:10:04.644Z,1.80
2018-02-10T07:12:32.092Z,1.90
2018-02-10T07:14:59.560Z,2.00
2018-02-10T07:17:27.787Z,1.90
2018-02-10T07:19:56.004Z,2.10
2018-02-10T07:22:23.462Z,2.10
2018-02-10T07:24:50.918Z,2.20
2018-02-10T07:27:18.375Z,2.20
2018-02-10T07:29:45.839Z,2.30
2018-02-10T07:32:13.304Z,2.30
2018-02-10T07:34:40.764Z,2.30
2018-02-10T07:37:08.229Z,2.30
2018-02-10T07:39:35.688Z,2.20
2018-02-10T07:42:03.136Z,2.30
2018-02-10T07:44:30.611Z,2.30
2018-02-10T07:46:58.060Z,2.40
2018-02-10T07:49:25.535Z,2.50
2018-02-10T07:51:53.000Z,2.50
2018-02-10T07:54:20.476Z,2.50
2018-02-10T07:56:47.931Z,2.50
2018-02-10T07:59:15.420Z,2.50
2018-02-10T08:01:43.645Z,2.50
2018-02-10T08:04:11.868Z,2.60
2018-02-10T08:06:39.332Z,2.50
2018-02-10T08:09:06.808Z,2.60
2018-02-10T08:11:34.271Z,2.60
2018-02-10T08:14:01.730Z,2.60
2018-02-10T08:16:29.184Z,2.70
2018-02-10T08:18:56.648Z,2.70
2018-02-10T08:21:24.122Z,2.70
2018-02-10T08:23:51.573Z,2.70
2018-02-10T08:26:19.036Z,2.60
2018-02-10T08:31:37.078Z,2.70
2018-02-10T08:34:04.544Z,2.70
2018-02-10T08:36:32.013Z,2.70
2018-02-10T08:38:59.477Z,2.80
2018-02-10T08:41:27.009Z,2.80
2018-02-10T08:43:54.472Z,2.80
2018-02-10T08:46:21.939Z,2.80
2018-02-10T08:48:49.408Z,2.70
2018-02-10T08:51:16.876Z,2.80
2018-02-10T08:53:44.341Z,2.80
2018-02-10T08:56:11.815Z,2.80
2018-02-10T08:58:39.279Z,2.80
2018-02-10T09:01:06.752Z,2.80
2018-02-10T09:03:34.220Z,2.70
2018-02-10T09:06:01.712Z,2.80
2018-02-10T09:08:29.945Z,2.80
2018-02-10T09:10:58.244Z,2.80
2018-02-10T09:13:25.716Z,2.80
2018-02-10T09:15:53.211Z,2.90
2018-02-10T09:18:21.439Z,2.90
2018-02-10T09:20:48.892Z,2.90
2018-02-10T09:23:16.368Z,2.90
2018-02-10T09:25:43.834Z,2.90
2018-02-10T09:28:11.306Z,2.90
2018-02-10T09:30:38.765Z,2.90
2018-02-10T09:33:06.248Z,2.90
2018-02-10T09:35:33.697Z,3.00
2018-02-10T09:38:01.161Z,2.90
2018-02-10T09:40:28.628Z,2.90
2018-02-10T09:42:56.109Z,3.00
2018-02-10T09:45:24.404Z,2.90
2018-02-10T09:47:51.888Z,2.90
2018-02-10T09:50:19.352Z,2.90
2018-02-10T09:52:46.831Z,3.00
2018-02-10T09:55:15.076Z,2.90
2018-02-10T09:57:42.581Z,2.90
2018-02-10T10:00:10.073Z,3.00
2018-02-10T10:02:38.317Z,3.00
2018-02-10T10:05:05.787Z,3.00
2018-02-10T10:07:33.292Z,3.00
2018-02-10T10:10:01.525Z,3.20
2018-02-10T10:12:28.983Z,3.10
2018-02-10T10:14:56.442Z,3.20
2018-02-10T10:17:23.918Z,3.20
2018-02-10T10:19:51.384Z,3.20
2018-02-10T10:22:18.840Z,3.30
2018-02-10T10:24:46.309Z,3.30
2018-02-10T10:27:13.782Z,3.30
2018-02-10T10:29:41.247Z,3.30
2018-02-10T10:32:08.701Z,3.30
2018-02-10T10:34:36.170Z,3.20
2018-02-10T10:37:03.623Z,3.30
2018-02-10T10:39:31.090Z,3.30
2018-02-10T10:41:58.553Z,3.30
2018-02-10T10:44:26.022Z,3.30
2018-02-10T10:46:53.493Z,3.40
2018-02-10T10:49:20.957Z,3.40
2018-02-10T10:51:49.188Z,3.40
2018-02-10T10:54:16.656Z,3.40
2018-02-10T10:56:44.108Z,3.40
2018-02-10T10:59:11.594Z,3.40
2018-02-10T11:01:39.056Z,3.40
2018-02-10T11:04:06.536Z,3.40
2018-02-10T11:06:33.990Z,3.50
2018-02-10T11:09:01.468Z,3.50
2018-02-10T11:11:28.930Z,3.50
2018-02-10T11:13:56.406Z,3.40
2018-02-10T11:16:24.631Z,3.60
2018-02-10T11:18:52.108Z,3.60
2018-02-10T11:21:19.569Z,3.60
2018-02-10T11:23:47.043Z,3.70
2018-02-10T11:26:14.503Z,3.70
2018-02-10T11:28:41.976Z,3.70
2018-02-10T11:31:09.441Z,3.80
2018-02-10T11:33:36.922Z,3.80
2018-02-10T11:36:05.152Z,3.90
2018-02-10T11:38:32.630Z,3.90
2018-02-10T11:41:00.089Z,4.00
2018-02-10T11:43:27.579Z,4.00
2018-02-10T11:45:55.038Z,4.10
2018-02-10T11:48:23.276Z,4.10
2018-02-10T11:50:50.758Z,4.10
2018-02-10T11:53:18.219Z,4.10
2018-02-10T11:55:45.684Z,4.10
2018-02-10T11:58:13.155Z,4.10
2018-02-10T12:00:40.627Z,4.10
2018-02-10T12:03:08.092Z,4.10
2018-02-10T12:05:35.553Z,4.10
2018-02-10T12:08:03.023Z,4.20
2018-02-10T12:10:30.497Z,4.20
2018-02-10T12:12:58.728Z,4.20
2018-02-10T12:15:27.006Z,4.10
2018-02-10T12:17:54.475Z,4.10
2018-02-10T12:20:21.998Z,4.10
2018-02-10T12:22:50.215Z,4.10
2018-02-10T12:25:17.716Z,4.10
2018-02-10T12:27:45.166Z,4.20
2018-02-10T12:30:12.663Z,4.20
2018-02-10T12:32:40.973Z,4.10
2018-02-10T12:35:08.500Z,4.10
2018-02-10T12:37:35.996Z,4.10
2018-02-10T12:40:03.475Z,4.10
2018-02-10T12:42:30.973Z,4.10
2018-02-10T12:44:58.476Z,4.10
2018-02-10T12:47:25.975Z,4.10
2018-02-10T12:49:53.502Z,4.10
2018-02-10T12:52:21.025Z,4.10
2018-02-10T12:54:49.479Z,4.10
2018-02-10T12:57:16.949Z,3.80
2018-02-10T12:59:44.500Z,3.70
2018-02-10T13:02:12.039Z,3.80
2018-02-10T13:04:40.282Z,3.70
2018-02-10T13:07:07.766Z,3.70
2018-02-10T13:09:36.018Z,3.60
2018-02-10T13:12:03.521Z,3.70
2018-02-10T13:14:31.071Z,3.70
2018-02-10T13:16:59.361Z,3.70
2018-02-10T13:19:27.582Z,3.70
2018-02-10T13:21:55.066Z,3.70
2018-02-10T13:24:22.598Z,3.90
2018-02-10T13:26:50.122Z,3.90
2018-02-10T13:29:18.366Z,4.00
2018-02-10T13:31:45.870Z,4.00
2018-02-10T13:34:14.157Z,4.00
2018-02-10T13:36:42.407Z,4.20
2018-02-10T13:39:09.895Z,4.10
2018-02-10T13:41:38.229Z,4.10
2018-02-10T13:44:05.702Z,4.10
2018-02-10T13:46:33.221Z,4.00
2018-02-10T13:49:00.721Z,4.10
2018-02-10T13:51:28.245Z,4.10
2018-02-10T13:53:55.753Z,4.10
2018-02-10T13:56:23.280Z,4.10
2018-02-10T13:58:50.847Z,4.20
2018-02-10T14:01:18.364Z,4.10
2018-02-10T14:03:45.886Z,4.20
2018-02-10T14:06:13.419Z,4.20
2018-02-10T14:08:40.856Z,4.10
2018-02-10T14:11:08.413Z,4.00
2018-02-10T14:13:35.885Z,4.10
2018-02-10T14:16:03.394Z,4.10
2018-02-10T14:18:30.869Z,4.10
2018-02-10T14:20:58.899Z,4.20
2018-02-10T14:23:27.164Z,4.30
2018-02-10T14:25:54.620Z,4.30
2018-02-10T14:28:22.083Z,4.30
2018-02-10T14:30:49.541Z,4.40
2018-02-10T14:33:17.008Z,4.30
2018-02-10T14:35:44.460Z,4.40
2018-02-10T14:38:11.927Z,4.40
2018-02-10T14:40:39.414Z,4.40
2018-02-10T14:43:07.644Z,4.40
2018-02-10T14:45:35.873Z,4.40
2018-02-10T14:48:04.117Z,4.30
2018-02-10T14:50:31.584Z,4.30
2018-02-10T14:52:59.055Z,4.40
2018-02-10T14:55:26.505Z,4.30
2018-02-10T14:57:53.969Z,4.30
2018-02-10T15:00:21.445Z,4.40
2018-02-10T15:02:48.929Z,4.40
2018-02-10T15:05:17.156Z,4.40
2018-02-10T15:07:44.620Z,4.40
2018-02-10T15:10:12.072Z,4.40
2018-02-10T15:12:39.539Z,4.40
2018-02-10T15:15:07.001Z,4.40
2018-02-10T15:17:34.482Z,4.40
2018-02-10T15:20:01.936Z,4.40
2018-02-10T15:22:29.393Z,4.30
2018-02-10T15:24:56.874Z,4.30
2018-02-10T15:27:24.331Z,4.40
2018-02-10T15:30:03.748Z,4.40
2018-02-10T15:32:42.942Z,4.50
2018-02-10T15:35:11.191Z,4.40
2018-02-10T15:37:38.654Z,4.40
2018-02-10T15:40:06.121Z,4.50
2018-02-10T15:42:33.589Z,4.50
2018-02-10T15:45:01.071Z,4.50
2018-02-10T15:47:29.296Z,4.40
2018-02-10T15:49:56.776Z,4.30
2018-02-10T15:52:24.230Z,4.30
2018-02-10T15:54:51.692Z,4.30
2018-02-10T15:57:19.153Z,4.30
2018-02-10T15:59:46.619Z,4.30
2018-02-10T16:02:14.082Z,4.30
2018-02-10T16:04:41.546Z,4.30
2018-02-10T16:07:09.005Z,4.30
2018-02-10T16:09:36.479Z,4.30
2018-02-10T16:12:03.951Z,4.30
2018-02-10T16:14:31.417Z,4.30
2018-02-10T16:16:58.891Z,4.30
2018-02-10T16:19:27.139Z,4.30
2018-02-10T16:21:54.600Z,4.20
2018-02-10T16:24:22.066Z,4.20
2018-02-10T16:26:49.519Z,4.20
2018-02-10T16:29:16.994Z,4.20
2018-02-10T16:31:44.472Z,4.20
2018-02-10T16:34:11.937Z,4.20
2018-02-10T16:36:39.398Z,4.20
2018-02-10T16:41:57.878Z,4.20
2018-02-10T16:44:25.323Z,4.20
2018-02-10T16:46:53.557Z,4.10
2018-02-10T16:49:21.053Z,4.10
2018-02-10T16:51:48.505Z,4.10
2018-02-10T16:54:15.993Z,4.10
2018-02-10T16:56:43.470Z,4.10
2018-02-10T16:59:11.690Z,4.10
2018-02-10T17:01:39.162Z,4.10
2018-02-10T17:04:06.642Z,4.10
2018-02-10T17:06:36.704Z,4.00
2018-02-10T17:09:06.394Z,4.10
2018-02-10T17:11:38.450Z,4.10
2018-02-10T17:14:05.964Z,4.10
2018-02-10T17:16:33.463Z,4.00
2018-02-10T17:19:01.686Z,4.00
2018-02-10T17:21:29.924Z,4.00
2018-02-10T17:23:57.375Z,3.90
2018-02-10T17:26:25.625Z,3.90
2018-02-10T17:28:53.084Z,3.90
2018-02-10T17:31:20.546Z,3.90
2018-02-10T17:33:47.996Z,3.90
2018-02-10T17:36:15.462Z,3.90
2018-02-10T17:38:42.939Z,3.90
2018-02-10T17:41:10.402Z,3.90
2018-02-10T17:43:37.859Z,3.90
2018-02-10T17:46:05.328Z,3.90
2018-02-10T17:48:32.770Z,3.90
2018-02-10T17:51:01.020Z,3.90
2018-02-10T17:53:28.470Z,3.90
2018-02-10T17:55:55.967Z,3.80
2018-02-10T17:58:24.177Z,3.90
2018-02-10T18:00:51.650Z,3.90
2018-02-10T18:03:19.105Z,3.90
2018-02-10T18:05:46.577Z,3.90
2018-02-10T18:08:14.051Z,3.90
2018-02-10T18:10:41.513Z,3.90
2018-02-10T18:13:08.975Z,3.90
2018-02-10T18:15:36.436Z,3.90
2018-02-10T18:18:03.901Z,3.80
2018-02-10T18:20:31.369Z,3.80
2018-02-10T18:22:58.837Z,3.90
2018-02-10T18:25:26.298Z,3.80
2018-02-10T18:27:53.772Z,3.80
2018-02-10T18:30:21.221Z,3.80
2018-02-10T18:32:48.685Z,3.80
2018-02-10T18:35:16.138Z,3.80
2018-02-10T18:37:43.606Z,3.80
2018-02-10T18:40:11.061Z,3.80
2018-02-10T18:42:38.524Z,3.80
2018-02-10T18:45:06.005Z,3.80
2018-02-10T18:47:33.457Z,3.80
2018-02-10T18:50:00.913Z,3.70
2018-02-10T18:52:28.397Z,3.80
2018-02-10T18:54:55.868Z,3.80
2018-02-10T18:57:23.324Z,3.80
2018-02-10T18:59:50.777Z,3.80
2018-02-10T19:02:18.260Z,3.80
2018-02-10T19:04:45.713Z,3.70
2018-02-10T19:07:13.173Z,3.80
2018-02-10T19:09:40.624Z,3.70
2018-02-10T19:12:08.084Z,3.70
2018-02-10T19:14:35.552Z,3.60
2018-02-10T19:17:03.025Z,3.70
2018-02-10T19:19:30.484Z,3.70
2018-02-10T19:21:57.948Z,3.70
2018-02-10T19:24:25.403Z,3.60
2018-02-10T19:26:52.874Z,3.70
2018-02-10T19:29:20.345Z,3.60
2018-02-10T19:31:47.794Z,3.70
2018-02-10T19:34:16.216Z,3.50
2018-02-10T19:36:43.674Z,3.40
2018-02-10T19:39:11.900Z,3.30
2018-02-10T19:41:39.357Z,3.30
2018-02-10T19:44:06.826Z,3.30
2018-02-10T19:46:34.289Z,3.30
2018-02-10T19:49:01.822Z,3.20
2018-02-10T19:51:29.268Z,3.20
2018-02-10T19:53:57.491Z,3.30
2018-02-10T19:56:24.976Z,3.30
2018-02-10T19:58:52.438Z,3.20
2018-02-10T20:01:19.895Z,3.20
2018-02-10T20:03:47.362Z,3.30
2018-02-10T20:06:14.847Z,3.20
2018-02-10T20:08:43.083Z,3.20
2018-02-10T20:11:10.555Z,3.20
2018-02-10T20:13:38.019Z,3.20
2018-02-10T20:16:05.490Z,3.30
2018-02-10T20:18:32.943Z,3.40
2018-02-10T20:21:00.408Z,3.40
2018-02-10T20:23:27.872Z,3.40
2018-02-10T20:25:55.328Z,3.50
2018-02-10T20:28:22.793Z,3.40
2018-02-10T20:30:50.261Z,3.40
2018-02-10T20:33:17.732Z,3.40
2018-02-10T20:35:45.205Z,3.40
2018-02-10T20:38:12.665Z,3.50
2018-02-10T20:40:40.124Z,3.50
2018-02-10T20:43:07.587Z,3.50
2018-02-10T20:45:35.054Z,3.50
2018-02-10T20:48:02.505Z,3.40
2018-02-10T20:50:29.973Z,3.40
2018-02-10T20:52:57.422Z,3.40
2018-02-10T20:55:24.880Z,3.50
2018-02-10T20:57:52.345Z,3.50
2018-02-10T21:00:19.827Z,3.40
2018-02-10T21:02:47.309Z,3.50
2018-02-10T21:05:15.537Z,3.60
2018-02-10T21:07:43.007Z,3.60
2018-02-10T21:10:10.471Z,3.60
2018-02-10T21:12:37.933Z,3.60
2018-02-10T21:15:05.400Z,3.60
2018-02-10T21:17:32.858Z,3.50
2018-02-10T21:20:00.322Z,3.50
2018-02-10T21:22:27.781Z,3.40
2018-02-10T21:24:55.306Z,3.40
2018-02-10T21:27:22.763Z,3.40
2018-02-10T21:29:50.233Z,3.40
2018-02-10T21:32:17.706Z,3.30
2018-02-10T21:34:45.177Z,3.30
2018-02-10T21:37:12.632Z,3.40
2018-02-10T21:39:40.105Z,3.30
2018-02-10T21:42:07.573Z,3.30
2018-02-10T21:44:35.048Z,3.20
2018-02-10T21:47:02.510Z,3.30
2018-02-10T21:49:29.977Z,3.20
2018-02-10T21:51:57.450Z,3.20
2018-02-10T21:54:24.906Z,3.20
2018-02-10T21:56:52.408Z,3.20
2018-02-10T21:59:20.638Z,3.10
2018-02-10T22:01:48.112Z,3.10
2018-02-10T22:04:15.570Z,3.10
2018-02-10T22:06:43.044Z,3.10
2018-02-10T22:09:10.514Z,3.00
2018-02-10T22:11:38.004Z,3.00
2018-02-10T22:14:05.465Z,3.00
2018-02-10T22:16:32.937Z,3.00
2018-02-10T22:19:00.407Z,3.00
2018-02-10T22:21:27.874Z,2.90
2018-02-10T22:23:56.195Z,2.90
2018-02-10T22:26:23.682Z,2.90
2018-02-10T22:28:51.129Z,2.90
2018-02-10T22:31:18.593Z,2.90
2018-02-10T22:33:46.059Z,2.90
2018-02-10T22:36:13.532Z,2.90
2018-02-10T22:38:41.745Z,2.90
2018-02-10T22:41:09.206Z,2.90
2018-02-10T22:43:36.665Z,2.80
2018-02-10T22:46:04.126Z,2.90
2018-02-10T22:48:31.618Z,2.90
2018-02-10T22:50:59.093Z,2.90
2018-02-10T22:53:26.556Z,2.90
2018-02-10T22:55:54.029Z,2.90
2018-02-10T22:58:21.525Z,2.90
2018-02-10T23:00:48.983Z,2.90
2018-02-10T23:03:16.456Z,2.90
2018-02-10T23:05:43.909Z,2.80
2018-02-10T23:08:11.379Z,2.80
2018-02-10T23:10:39.618Z,2.80
2018-02-10T23:13:07.080Z,2.80
2018-02-10T23:15:34.544Z,2.80
2018-02-10T23:18:02.045Z,2.70
2018-02-10T23:20:29.493Z,2.70
2018-02-10T23:22:56.962Z,2.70
2018-02-10T23:25:24.421Z,2.80
2018-02-10T23:27:51.899Z,2.80
2018-02-10T23:30:20.131Z,2.70
2018-02-10T23:32:47.612Z,2.70
2018-02-10T23:35:15.066Z,2.60
2018-02-10T23:37:42.536Z,2.70
2018-02-10T23:40:09.996Z,2.60
2018-02-10T23:42:38.224Z,2.60
2018-02-10T23:45:06.456Z,2.60
2018-02-10T23:47:33.915Z,2.60
2018-02-10T23:50:01.379Z,2.60
2018-02-10T23:52:28.857Z,2.60
2018-02-10T23:54:56.327Z,2.50
2018-02-10T23:57:23.801Z,2.50
2018-02-10T23:59:52.027Z,2.50
